.
WxDataArchive / Data Records for 2013-01-30
2013-01-29 January 2013 2013-01-31

Data Records for Wednesday, 30 January 2013

Time	Temp	Chill	HIndex	Humid	Dewpt	 Wind 	HiWind	WindDir	Rain 	Barom 
-----	----	-----	------	-----	-----	------	------	-------	-----	----- 
00:00	61.2	61.2	61.2	82	55.7	4	10	90	0.00	29.403 
00:05	61.3	61.3	61.3	81	55.4	5	11	90	0.00	29.403 
00:10	61.3	61.3	61.3	81	55.4	4	11	90	0.00	29.403 
00:15	61.5	61.5	61.5	81	55.6	4	9	90	0.00	29.381 
00:20	61.6	61.6	61.6	81	55.7	4	10	90	0.00	29.381 
00:25	61.8	61.8	61.8	81	55.9	5	13	90	0.00	29.381 
00:30	62.1	62.1	62.1	81	56.2	5	11	90	0.00	29.372 
00:35	62.1	62.1	62.1	80	55.9	4	8	112	0.00	29.372 
00:40	62.1	62.1	62.1	80	55.9	4	13	90	0.00	29.372 
00:45	62.1	62.1	62.1	80	55.9	5	13	90	0.00	29.355 
00:50	62.3	62.3	62.3	80	56.0	5	14	90	0.00	29.355 
00:55	62.3	62.3	62.3	80	56.0	6	13	90	0.00	29.355 
01:00	62.4	62.4	62.4	80	56.1	5	11	90	0.00	29.340 
01:05	62.4	62.4	62.4	80	56.1	6	15	90	0.00	29.340 
01:10	62.6	62.6	62.6	80	56.3	5	15	90	0.00	29.340 
01:15	62.7	62.7	62.7	80	56.4	4	11	90	0.00	29.327 
01:20	62.7	62.7	62.7	80	56.4	4	13	90	0.00	29.327 
01:25	62.7	62.7	62.7	80	56.4	4	11	90	0.00	29.327 
01:30	62.7	62.7	62.7	79	56.1	5	10	90	0.00	29.311 
01:35	62.9	62.9	62.9	79	56.3	7	13	90	0.00	29.311 
01:40	62.9	62.9	62.9	81	57.0	5	11	90	0.00	29.311 
01:45	62.7	62.7	62.7	81	56.8	5	12	90	0.01	29.294 
01:50	62.7	62.7	62.7	81	56.8	6	14	90	0.00	29.294 
01:55	62.9	62.9	62.9	80	56.6	6	19	112	0.00	29.294 
02:00	62.9	62.9	62.9	81	57.0	6	11	90	0.00	29.281 
02:05	62.9	62.9	62.9	81	57.0	6	15	90	0.00	29.281 
02:10	62.9	62.9	62.9	81	57.0	5	12	90	0.00	29.281 
02:15	62.9	62.9	62.9	81	57.0	5	10	90	0.00	29.278 
02:20	63.2	63.2	63.2	80	56.9	5	12	90	0.00	29.278 
02:25	63.5	63.5	63.5	79	56.9	6	15	90	0.00	29.278 
02:30	63.9	63.9	63.9	79	57.3	7	16	90	0.00	29.277 
02:35	64.2	64.2	64.2	79	57.5	4	20	248	0.00	29.277 
02:40	63.9	63.9	63.9	83	58.6	3	10	248	0.06	29.277 
02:45	62.9	62.9	62.9	86	58.6	3	10	248	0.02	29.309 
02:50	60.5	60.5	60.5	84	55.6	5	10	270	0.00	29.309 
02:55	57.6	57.6	57.6	85	53.1	4	10	315	0.00	29.309 
03:00	56.0	56.0	56.0	86	51.9	4	10	292	0.00	29.339 
03:05	55.1	55.1	55.1	88	51.6	4	9	338	0.00	29.339 
03:10	54.7	54.7	54.7	88	51.2	4	6	338	0.00	29.339 
03:15	54.4	54.4	54.4	89	51.2	4	10	315	0.00	29.346 
03:20	54.1	54.1	54.1	90	51.2	3	9	270	0.00	29.346 
03:25	53.9	53.9	53.9	90	51.0	2	5	315	0.00	29.346 
03:30	53.8	53.8	53.8	90	50.9	3	7	270	0.00	29.341 
03:35	53.6	53.6	53.6	91	51.0	1	4	270	0.00	29.341 
03:40	53.5	53.5	53.5	91	50.9	1	5	248	0.01	29.341 
03:45	53.5	53.5	53.5	91	50.9	1	4	248	0.00	29.336 
03:50	53.3	53.3	53.3	92	51.0	1	3	248	0.00	29.336 
03:55	53.3	53.3	53.3	92	51.0	0	2	248	0.00	29.336 
04:00	53.2	53.2	53.2	92	50.9	0	2	248	0.00	29.360 
04:05	53.2	53.2	53.2	92	50.9	0	2	248	0.01	29.360 
04:10	53.2	53.2	53.2	92	50.9	0	1	248	0.00	29.360 
04:15	53.1	53.1	53.1	92	50.8	0	1	248	0.01	29.365 
04:20	52.9	52.9	52.9	93	50.9	0	1	248	0.01	29.365 
04:25	52.9	52.9	52.9	93	50.9	0	2	248	0.01	29.365 
04:30	52.8	52.8	52.8	93	50.8	0	1	248	0.00	29.366 
04:35	52.8	52.8	52.8	93	50.8	0	2	248	0.01	29.366 
04:40	52.6	52.6	52.6	93	50.6	0	1	248	0.00	29.366 
04:45	52.6	52.6	52.6	94	50.9	0	2	248	0.01	29.367 
04:50	52.5	52.5	52.5	94	50.8	0	1	248	0.00	29.367 
04:55	52.5	52.5	52.5	94	50.8	0	1	248	0.00	29.367 
05:00	52.3	52.3	52.3	94	50.6	0	1	248	0.01	29.385 
05:05	52.3	52.3	52.3	94	50.6	0	1	248	0.01	29.385 
05:10	52.3	52.3	52.3	94	50.6	0	0	---	0.01	29.385 
05:15	52.2	52.2	52.2	94	50.5	0	1	248	0.00	29.385 
05:20	52.2	52.2	52.2	94	50.5	0	0	---	0.01	29.385 
05:25	52.2	52.2	52.2	94	50.5	0	0	---	0.01	29.385 
05:30	52.0	52.0	52.0	94	50.3	0	0	---	0.01	29.378 
05:35	51.9	51.9	51.9	94	50.2	0	1	248	0.00	29.378 
05:40	51.7	51.7	51.7	95	50.3	0	1	248	0.01	29.378 
05:45	51.6	51.6	51.6	95	50.2	0	0	---	0.00	29.381 
05:50	51.6	51.6	51.6	95	50.2	0	1	248	0.01	29.381 
05:55	51.6	51.6	51.6	95	50.2	0	0	---	0.01	29.381 
06:00	51.6	51.6	51.6	95	50.2	0	1	248	0.01	29.366 
06:05	51.4	51.4	51.4	95	50.0	0	1	248	0.01	29.366 
06:10	51.4	51.4	51.4	95	50.0	0	2	248	0.01	29.366 
06:15	51.4	51.4	51.4	95	50.0	0	1	248	0.00	29.326 
06:20	51.3	51.3	51.3	95	49.9	0	2	248	0.00	29.326 
06:25	51.3	51.3	51.3	95	49.9	0	2	248	0.00	29.326 
06:30	51.1	51.1	51.1	95	49.7	0	2	248	0.00	29.332 
06:35	51.1	51.1	51.1	95	49.7	1	3	202	0.00	29.332 
06:40	51.1	51.1	51.1	95	49.7	0	2	112	0.00	29.332 
06:45	51.1	51.1	51.1	95	49.7	1	3	112	0.01	29.335 
06:50	51.0	51.0	51.0	96	49.9	0	1	112	0.00	29.335 
06:55	50.8	50.8	50.8	95	49.4	0	1	112	0.00	29.335 
07:00	50.7	50.7	50.7	96	49.6	0	1	112	0.00	29.335 
07:05	50.7	50.7	50.7	96	49.6	0	1	112	0.00	29.335 
07:10	50.5	50.5	50.5	96	49.4	0	1	112	0.00	29.335 
07:15	50.4	50.4	50.4	96	49.3	1	3	112	0.00	29.274 
07:20	50.4	50.4	50.4	96	49.3	0	2	112	0.00	29.274 
07:25	50.2	50.2	50.2	96	49.1	1	2	135	0.00	29.274 
07:30	50.2	50.2	50.2	96	49.1	1	4	112	0.00	29.300 
07:35	50.2	50.2	50.2	96	49.1	1	5	112	0.00	29.300 
07:40	50.2	50.2	50.2	96	49.1	1	3	158	0.00	29.300 
07:45	50.2	50.2	50.2	96	49.1	1	2	112	0.00	29.305 
07:50	50.1	50.1	50.1	96	49.0	0	2	112	0.00	29.305 
07:55	50.1	50.1	50.1	96	49.0	0	2	112	0.00	29.305 
08:00	50.1	50.1	50.1	96	49.0	0	2	112	0.00	29.321 
08:05	49.9	49.9	49.9	96	48.8	0	1	112	0.00	29.321 
08:10	49.9	49.9	49.9	96	48.8	0	1	112	0.00	29.321 
08:15	49.9	49.9	49.9	96	48.8	1	3	112	0.00	29.273 
08:20	49.6	49.6	49.6	96	48.5	1	4	112	0.00	29.273 
08:25	49.6	49.6	49.6	96	48.5	1	3	112	0.00	29.273 
08:30	49.6	49.6	49.6	96	48.5	1	3	112	0.00	29.260 
08:35	49.6	49.6	49.6	96	48.5	1	4	90	0.00	29.260 
08:40	49.6	49.6	49.6	96	48.5	2	5	112	0.00	29.260 
08:45	49.6	49.6	49.6	96	48.5	1	4	135	0.00	29.257 
08:50	49.8	49.8	49.8	96	48.7	2	4	90	0.00	29.257 
08:55	49.8	49.8	49.8	96	48.7	0	2	112	0.00	29.257 
09:00	49.8	49.8	49.8	96	48.7	1	3	112	0.00	29.287 
09:05	49.8	49.8	49.8	96	48.7	1	4	90	0.00	29.287 
09:10	49.8	49.8	49.8	96	48.7	0	2	90	0.00	29.287 
09:15	49.8	49.8	49.8	96	48.7	1	3	90	0.00	29.292 
09:20	49.8	49.8	49.8	96	48.7	1	4	90	0.00	29.292 
09:25	49.9	49.9	49.9	96	48.8	1	3	270	0.00	29.292 
09:30	49.9	49.9	49.9	96	48.8	0	3	270	0.00	29.319 
09:35	50.1	50.1	50.1	96	49.0	1	3	270	0.00	29.319 
09:40	50.2	50.2	50.2	96	49.1	0	3	270	0.00	29.319 
09:45	50.4	50.4	50.4	96	49.3	1	4	270	0.00	29.303 
09:50	50.4	50.4	50.4	96	49.3	0	3	270	0.00	29.303 
09:55	50.5	50.5	50.5	96	49.4	1	3	270	0.00	29.303 
10:00	50.5	50.5	50.5	96	49.4	1	2	270	0.00	29.320 
10:05	50.5	50.5	50.5	96	49.4	1	3	248	0.00	29.320 
10:10	50.5	50.5	50.5	96	49.4	1	2	315	0.00	29.320 
10:15	50.5	50.5	50.5	96	49.4	1	4	270	0.00	29.312 
10:20	50.4	50.4	50.4	96	49.3	1	4	248	0.00	29.312 
10:25	50.5	50.5	50.5	96	49.4	1	5	248	0.00	29.312 
10:30	50.7	50.7	50.7	96	49.6	1	5	248	0.00	29.315 
10:35	50.7	50.7	50.7	96	49.6	1	3	248	0.00	29.315 
10:40	50.8	50.8	50.8	96	49.7	2	6	248	0.00	29.315 
10:45	51.0	51.0	51.0	96	49.9	1	5	248	0.00	29.317 
10:50	51.1	51.1	51.1	96	50.0	1	4	248	0.00	29.317 
10:55	51.1	51.1	51.1	96	50.0	2	9	248	0.00	29.317 
11:00	51.1	51.1	51.1	95	49.7	1	4	248	0.00	29.293 
11:05	51.3	51.3	51.3	95	49.9	1	5	248	0.00	29.293 
11:10	51.3	51.3	51.3	95	49.9	1	3	248	0.00	29.293 
11:15	51.4	51.4	51.4	95	50.0	1	5	248	0.00	29.284 
11:20	51.6	51.6	51.6	95	50.2	1	5	248	0.00	29.284 
11:25	51.7	51.7	51.7	95	50.3	2	4	248	0.00	29.284 
11:30	51.7	51.7	51.7	95	50.3	1	5	248	0.00	29.299 
11:35	51.9	51.9	51.9	94	50.2	1	4	248	0.00	29.299 
11:40	51.9	51.9	51.9	94	50.2	2	7	248	0.00	29.299 
11:45	52.0	52.0	52.0	94	50.3	2	5	248	0.00	29.285 
11:50	52.2	52.2	52.2	93	50.2	1	5	248	0.00	29.285 
11:55	52.2	52.2	52.2	93	50.2	2	6	248	0.00	29.285 
12:00	52.2	52.2	52.2	92	49.9	1	6	248	0.00	29.281 
12:05	52.2	52.2	52.2	92	49.9	1	7	248	0.00	29.281 
12:10	52.0	52.0	52.0	92	49.7	1	4	270	0.00	29.281 
12:15	52.0	52.0	52.0	92	49.7	1	4	225	0.00	29.267 
12:20	52.0	52.0	52.0	91	49.5	1	2	225	0.00	29.267 
12:25	52.0	52.0	52.0	91	49.5	1	6	225	0.00	29.267 
12:30	52.0	52.0	52.0	91	49.5	2	5	225	0.00	29.251 
12:35	52.0	52.0	52.0	91	49.5	2	5	248	0.00	29.251 
12:40	52.0	52.0	52.0	91	49.5	1	4	248	0.00	29.251 
12:45	51.9	51.9	51.9	91	49.4	2	7	248	0.00	29.243 
12:50	51.9	51.9	51.9	91	49.4	1	5	248	0.00	29.243 
12:55	51.7	51.7	51.7	92	49.5	1	4	248	0.00	29.243 
13:00	51.7	51.7	51.7	92	49.5	1	5	248	0.00	29.256 
13:05	51.7	51.7	51.7	92	49.5	1	6	248	0.00	29.256 
13:10	51.9	51.9	51.9	92	49.6	2	6	225	0.00	29.256 
13:15	51.7	51.7	51.7	92	49.5	2	11	248	0.00	29.254 
13:20	51.7	51.7	51.7	92	49.5	2	7	248	0.00	29.254 
13:25	51.7	51.7	51.7	92	49.5	3	10	248	0.00	29.254 
13:30	51.7	51.7	51.7	92	49.5	2	9	292	0.00	29.248 
13:35	51.9	51.9	51.9	93	49.9	3	9	248	0.00	29.248 
13:40	51.9	51.9	51.9	93	49.9	1	5	248	0.00	29.248 
13:45	52.0	52.0	52.0	92	49.7	2	11	248	0.00	29.248 
13:50	51.9	51.9	51.9	92	49.6	2	9	248	0.00	29.248 
13:55	51.7	51.7	51.7	92	49.5	2	6	248	0.00	29.248 
14:00	51.7	51.7	51.7	92	49.5	2	7	248	0.00	29.227 
14:05	51.6	51.6	51.6	92	49.4	2	6	248	0.01	29.227 
14:10	51.3	51.3	51.3	92	49.1	3	10	248	0.00	29.227 
14:15	51.1	51.1	51.1	92	48.9	3	11	225	0.00	29.227 
14:20	51.3	51.3	51.3	92	49.1	2	6	248	0.00	29.227 
14:25	51.4	51.4	51.4	92	49.2	2	6	248	0.00	29.227 
14:30	51.6	51.6	51.6	92	49.4	2	10	248	0.00	29.227 
14:35	51.7	51.7	51.7	92	49.5	2	7	248	0.00	29.227 
14:40	51.9	51.9	51.9	92	49.6	1	5	248	0.00	29.227 
14:45	52.2	52.2	52.2	92	49.9	2	6	248	0.00	29.211 
14:50	52.2	52.2	52.2	91	49.7	2	6	248	0.00	29.211 
14:55	52.2	52.2	52.2	90	49.4	3	7	248	0.00	29.211 
15:00	52.3	52.3	52.3	90	49.5	2	5	248	0.00	29.188 
15:05	52.5	52.5	52.5	89	49.4	3	7	270	0.00	29.188 
15:10	52.5	52.5	52.5	88	49.0	3	7	248	0.00	29.188 
15:15	52.5	52.5	52.5	88	49.0	2	7	225	0.00	29.197 
15:20	52.6	52.6	52.6	87	48.8	2	7	248	0.00	29.197 
15:25	52.6	52.6	52.6	86	48.5	3	6	248	0.00	29.197 
15:30	52.5	52.5	52.5	86	48.4	3	9	248	0.00	29.197 
15:35	52.5	52.5	52.5	86	48.4	3	7	248	0.00	29.197 
15:40	52.3	52.3	52.3	86	48.2	2	6	248	0.00	29.197 
15:45	52.3	52.3	52.3	86	48.2	1	3	248	0.00	29.196 
15:50	52.3	52.3	52.3	86	48.2	3	9	248	0.00	29.196 
15:55	52.3	52.3	52.3	86	48.2	1	3	270	0.00	29.196 
16:00	52.5	52.5	52.5	86	48.4	1	4	315	0.00	29.181 
16:05	52.5	52.5	52.5	86	48.4	1	5	248	0.00	29.181 
16:10	52.3	52.3	52.3	86	48.2	1	3	248	0.00	29.181 
16:15	52.3	52.3	52.3	86	48.2	1	3	90	0.00	29.190 
16:20	52.2	52.2	52.2	87	48.4	1	3	292	0.01	29.190 
16:25	51.6	51.6	51.6	87	47.9	4	9	248	0.02	29.190 
16:30	48.8	46.2	48.8	85	44.5	6	14	270	0.01	29.217 
16:35	47.3	45.8	47.3	87	43.6	4	9	248	0.00	29.217 
16:40	46.8	46.8	46.8	88	43.4	3	6	248	0.00	29.217 
16:45	46.5	46.5	46.5	89	43.4	2	5	248	0.00	29.195 
16:50	46.2	46.2	46.2	89	43.1	3	7	248	0.00	29.195 
16:55	46.1	46.1	46.1	90	43.3	3	7	248	0.00	29.195 
17:00	45.8	45.8	45.8	90	43.0	3	5	248	0.00	29.203 
17:05	45.7	43.9	45.7	90	42.9	4	7	248	0.00	29.203 
17:10	45.2	43.3	45.2	89	42.2	4	10	248	0.00	29.203 
17:15	45.1	43.2	45.1	89	42.1	4	12	248	0.01	29.214 
17:20	44.8	42.9	44.8	89	41.8	4	7	248	0.00	29.214 
17:25	44.3	41.5	44.3	89	41.3	5	11	248	0.00	29.214 
17:30	43.8	43.8	43.8	89	40.8	3	7	248	0.00	29.221 
17:35	43.5	43.5	43.5	89	40.5	3	11	248	0.00	29.221 
17:40	42.8	40.6	42.8	88	39.5	4	9	270	0.00	29.221 
17:45	42.3	40.0	42.3	89	39.3	4	9	248	0.00	29.224 
17:50	41.8	39.4	41.8	88	38.5	4	15	270	0.00	29.224 
17:55	40.9	37.5	40.9	87	37.3	5	12	270	0.00	29.224 
18:00	40.3	37.7	40.3	86	36.5	4	10	270	0.00	29.242 
18:05	39.9	35.6	39.9	86	36.1	6	12	248	0.00	29.242 
18:10	39.6	36.9	39.6	87	36.1	4	12	248	0.00	29.242 
18:15	39.3	35.7	39.3	87	35.8	5	16	248	0.01	29.247 
18:20	38.5	33.3	38.5	86	34.7	7	17	248	0.00	29.247 
18:25	37.9	33.3	37.9	86	34.1	6	12	248	0.00	29.247 
18:30	37.8	34.8	37.8	87	34.3	4	10	248	0.00	29.260 
18:35	37.5	34.4	37.5	87	34.0	4	11	248	0.00	29.260 
18:40	37.3	37.3	37.3	88	34.1	3	7	248	0.00	29.260 
18:45	37.2	37.2	37.2	88	34.0	3	6	248	0.00	29.269 
18:50	37.0	37.0	37.0	88	33.8	3	7	248	0.00	29.269 
18:55	37.0	37.0	37.0	89	34.1	3	7	248	0.00	29.269 
19:00	36.9	36.9	36.9	89	34.0	3	7	248	0.00	29.275 
19:05	36.9	32.8	36.9	89	34.0	5	14	248	0.01	29.275 
19:10	36.9	36.9	36.9	89	34.0	3	12	248	0.00	29.275 
19:15	36.8	33.6	36.8	89	33.9	4	10	248	0.00	29.290 
19:20	36.6	33.4	36.6	89	33.7	4	10	270	0.00	29.290 
19:25	36.6	32.5	36.6	89	33.7	5	10	248	0.00	29.290 
19:30	36.5	33.3	36.5	88	33.3	4	12	248	0.00	29.278 
19:35	36.5	32.4	36.5	88	33.3	5	13	248	0.00	29.278 
19:40	36.3	33.0	36.3	88	33.1	4	11	248	0.00	29.278 
19:45	36.3	33.0	36.3	88	33.1	4	14	248	0.00	29.299 
19:50	36.2	32.9	36.2	89	33.3	4	10	248	0.00	29.299 
19:55	36.2	32.0	36.2	88	33.0	5	11	248	0.00	29.299 
20:00	36.2	32.9	36.2	88	33.0	4	10	248	0.00	29.291 
20:05	36.2	32.0	36.2	88	33.0	5	14	248	0.00	29.291 
20:10	36.2	32.0	36.2	87	32.7	5	14	248	0.00	29.291 
20:15	36.0	31.8	36.0	87	32.5	5	10	270	0.00	29.277 
20:20	35.9	30.9	35.9	86	32.1	6	13	270	0.00	29.277 
20:25	35.9	32.6	35.9	85	31.8	4	9	248	0.00	29.277 
20:30	35.8	32.5	35.8	85	31.7	4	12	248	0.00	29.304 
20:35	35.6	30.5	35.6	85	31.5	6	18	248	0.00	29.304 
20:40	35.5	30.4	35.5	84	31.2	6	13	270	0.00	29.304 
20:45	35.2	31.8	35.2	85	31.2	4	13	248	0.00	29.309 
20:50	34.9	30.5	34.9	86	31.1	5	11	248	0.00	29.309 
20:55	34.6	31.1	34.6	87	31.1	4	10	248	0.00	29.309 
21:00	34.1	30.5	34.1	88	30.9	4	9	270	0.00	29.308 
21:05	33.7	29.1	33.7	88	30.5	5	10	270	0.00	29.308 
21:10	33.4	29.7	33.4	89	30.5	4	9	270	0.00	29.308 
21:15	33.2	28.5	33.2	89	30.3	5	9	270	0.00	29.322 
21:20	32.9	29.1	32.9	88	29.7	4	9	270	0.00	29.322 
21:25	32.7	27.9	32.7	88	29.5	5	10	270	0.00	29.322 
21:30	32.4	28.5	32.4	87	29.0	4	10	270	0.00	29.333 
21:35	32.2	28.3	32.2	87	28.8	4	9	270	0.00	29.333 
21:40	32.1	27.2	32.1	86	28.4	5	10	270	0.00	29.333 
21:45	32.1	28.2	32.1	86	28.4	4	7	248	0.00	29.345 
21:50	32.1	28.2	32.1	86	28.4	4	8	270	0.00	29.345 
21:55	31.9	27.0	31.9	85	27.9	5	11	270	0.00	29.345 
22:00	31.8	27.8	31.8	84	27.5	4	11	270	0.00	29.360 
22:05	31.8	27.8	31.8	84	27.5	4	7	270	0.00	29.360 
22:10	31.8	27.8	31.8	83	27.2	4	11	248	0.00	29.360 
22:15	31.8	31.8	31.8	83	27.2	3	7	270	0.00	29.372 
22:20	31.6	27.6	31.6	82	26.7	4	11	270	0.00	29.372 
22:25	31.5	26.5	31.5	81	26.4	5	10	270	0.00	29.372 
22:30	31.5	31.5	31.5	81	26.4	3	6	248	0.00	29.379 
22:35	31.5	31.5	31.5	82	26.7	3	5	270	0.00	29.379 
22:40	31.3	26.3	31.3	82	26.5	5	11	270	0.00	29.379 
22:45	31.3	27.3	31.3	82	26.5	4	7	270	0.00	29.392 
22:50	31.0	26.9	31.0	81	25.9	4	10	270	0.00	29.392 
22:55	31.0	26.9	31.0	81	25.9	4	6	270	0.00	29.392 
23:00	30.9	30.9	30.9	80	25.5	3	6	270	0.00	29.396 
23:05	30.7	30.7	30.7	80	25.3	3	5	270	0.00	29.396 
23:10	30.6	26.5	30.6	79	24.9	4	8	270	0.00	29.396 
23:15	30.6	26.5	30.6	78	24.6	4	11	270	0.00	29.413 
23:20	30.4	26.2	30.4	77	24.1	4	8	270	0.00	29.413 
23:25	30.3	26.1	30.3	75	23.3	4	9	270	0.00	29.413 
23:30	30.3	25.1	30.3	75	23.3	5	9	270	0.00	29.428 
23:35	30.1	30.1	30.1	76	23.5	3	6	270	0.00	29.428 
23:40	30.0	25.8	30.0	76	23.4	4	9	270	0.00	29.428 
23:45	30.0	25.8	30.0	76	23.4	4	6	270	0.00	29.438 
23:50	30.0	25.8	30.0	76	23.4	4	9	270	0.00	29.438 
23:55	29.8	29.8	29.8	77	23.5	3	8	270	0.00	29.438 

CoCoRaHS
IN-AL-39
A2 Web Hosting
Creative Commons License
GoDaddy
search engine by freefind advanced

loaded 2018-11-20 08:15:25 • last modified 2010-11-18 10:43:29
Privacy PolicyDisclaimer
• wx.awcolley.com is powered by PmWiki v.2002016 •
• all content (unless otherwise noted) © 2018 A W Colley